EmailTwitter


Surface observations / United Kingdom / EGLC

Regions: Quebec | Canada | USA | Europe | France | UK | Elsewhere
Station
Display
Info & Location for EGLC | Help decoding METAR

Weather Conditions observed on 2017/04/29 at 19:20 UTC at LONDON CITY AIRP, UK (EGLC)

Temperature: 14.0 Celsius.

Dewpoint: 3.0 Celsius.

Relative Humidity: 47%

Winds: Southeast at 19 km/h or 10 knots.

Mean Sea level Pressure: 101.20 kilopascals.

Horizontal visibility: 6.21 statute miles or 9.94 kilometers.

Coded METAR:

EGLC 291920Z AUTO 12010KT 9999 NCD 14/03 Q1012=